createdAt,value
2019-02-16T00:00:09.433Z,0.00
2019-02-16T00:01:08.990Z,0.00
2019-02-16T00:03:02.373Z,4.00
2019-02-16T00:04:02.593Z,4.00
2019-02-16T00:05:56.131Z,0.00
2019-02-16T00:06:55.670Z,4.00
2019-02-16T00:08:49.351Z,0.00
2019-02-16T00:09:49.007Z,4.00
2019-02-16T00:11:42.757Z,4.00
2019-02-16T00:12:42.596Z,4.00
2019-02-16T00:14:35.282Z,4.00
2019-02-16T00:15:35.433Z,8.00
2019-02-16T00:17:28.834Z,4.00
2019-02-16T00:18:28.821Z,8.00
2019-02-16T00:20:22.193Z,8.00
2019-02-16T00:21:21.951Z,8.00
2019-02-16T00:23:15.749Z,8.00
2019-02-16T00:24:15.474Z,8.00
2019-02-16T00:26:08.641Z,8.00
2019-02-16T00:27:08.633Z,12.00
2019-02-16T00:29:02.385Z,12.00
2019-02-16T00:30:02.182Z,12.00
2019-02-16T00:31:55.539Z,16.00
2019-02-16T00:32:55.805Z,16.00
2019-02-16T00:34:49.064Z,20.00
2019-02-16T00:35:48.876Z,24.00
2019-02-16T00:37:42.028Z,24.00
2019-02-16T00:38:42.233Z,28.00
2019-02-16T00:40:35.750Z,32.00
2019-02-16T00:41:35.561Z,32.00
2019-02-16T00:43:28.668Z,32.00
2019-02-16T00:44:30.235Z,36.00
2019-02-16T00:46:22.215Z,36.00
2019-02-16T00:47:22.030Z,36.00
2019-02-16T00:49:15.349Z,44.00
2019-02-16T00:50:15.354Z,44.00
2019-02-16T00:52:09.087Z,48.00
2019-02-16T00:53:08.679Z,48.00
2019-02-16T00:55:02.169Z,52.00
2019-02-16T00:56:02.035Z,52.00
2019-02-16T00:57:55.603Z,56.00
2019-02-16T00:58:55.421Z,56.00
2019-02-16T01:00:48.971Z,60.00
2019-02-16T01:01:48.980Z,60.00
2019-02-16T01:03:42.493Z,64.00
2019-02-16T01:04:42.091Z,64.00
2019-02-16T01:06:35.451Z,64.00
2019-02-16T01:07:35.437Z,64.00
2019-02-16T01:09:28.690Z,68.00
2019-02-16T01:10:28.549Z,64.00
2019-02-16T01:12:21.865Z,64.00
2019-02-16T01:13:21.613Z,68.00
2019-02-16T01:15:15.496Z,68.00
2019-02-16T01:16:14.979Z,76.00
2019-02-16T01:18:09.249Z,84.00
2019-02-16T01:19:08.300Z,92.00
2019-02-16T01:21:01.834Z,92.00
2019-02-16T01:22:01.672Z,96.00
2019-02-16T01:23:55.249Z,88.00
2019-02-16T01:24:54.977Z,100.00
2019-02-16T01:26:48.823Z,96.00
2019-02-16T01:27:48.429Z,108.00
2019-02-16T01:29:42.125Z,108.00
2019-02-16T01:30:41.998Z,112.00
2019-02-16T01:32:35.525Z,120.00
2019-02-16T01:33:35.130Z,128.00
2019-02-16T01:35:28.435Z,120.00
2019-02-16T01:36:28.685Z,128.00
2019-02-16T01:38:22.038Z,132.00
2019-02-16T01:39:21.986Z,136.00
2019-02-16T01:41:15.129Z,136.00
2019-02-16T01:42:15.164Z,136.00
2019-02-16T01:44:08.706Z,128.00
2019-02-16T01:47:02.040Z,156.00
2019-02-16T01:48:01.837Z,156.00
2019-02-16T01:51:31.858Z,168.00
2019-02-16T01:52:26.454Z,168.00
2019-02-16T01:54:19.773Z,156.00
2019-02-16T01:55:19.792Z,152.00
2019-02-16T01:57:13.464Z,152.00
2019-02-16T01:58:13.094Z,152.00
2019-02-16T02:00:06.584Z,144.00
2019-02-16T02:01:06.465Z,144.00
2019-02-16T02:03:00.067Z,144.00
2019-02-16T02:03:59.870Z,148.00
2019-02-16T02:05:52.967Z,148.00
2019-02-16T02:06:52.977Z,140.00
2019-02-16T02:08:47.251Z,140.00
2019-02-16T02:09:47.251Z,148.00
2019-02-16T02:11:40.677Z,136.00
2019-02-16T02:12:40.340Z,132.00
2019-02-16T02:14:34.258Z,124.00
2019-02-16T02:15:33.973Z,128.00
2019-02-16T02:17:27.323Z,120.00
2019-02-16T02:18:27.059Z,124.00
2019-02-16T02:20:21.463Z,116.00
2019-02-16T02:21:21.258Z,120.00
2019-02-16T02:23:14.655Z,132.00
2019-02-16T02:24:14.628Z,140.00
2019-02-16T02:26:08.236Z,140.00
2019-02-16T02:27:07.939Z,140.00
2019-02-16T02:29:01.424Z,140.00
2019-02-16T02:30:01.104Z,144.00
2019-02-16T02:31:55.228Z,144.00
2019-02-16T02:32:54.677Z,148.00
2019-02-16T02:34:48.110Z,148.00
2019-02-16T02:35:47.750Z,144.00
2019-02-16T02:37:41.311Z,156.00
2019-02-16T02:38:41.311Z,148.00
2019-02-16T02:40:34.461Z,152.00
2019-02-16T02:41:34.472Z,148.00
2019-02-16T02:43:28.319Z,144.00
2019-02-16T02:44:27.780Z,152.00
2019-02-16T02:46:21.409Z,148.00
2019-02-16T02:47:21.146Z,144.00
2019-02-16T02:49:14.680Z,144.00
2019-02-16T02:50:14.725Z,148.00
2019-02-16T02:52:07.853Z,152.00
2019-02-16T02:55:01.623Z,132.00
2019-02-16T02:56:01.199Z,144.00
2019-02-16T02:57:54.509Z,144.00
2019-02-16T02:58:54.744Z,160.00
2019-02-16T03:00:48.281Z,160.00
2019-02-16T03:01:47.873Z,160.00
2019-02-16T03:03:41.193Z,160.00
2019-02-16T03:04:41.200Z,160.00
2019-02-16T03:06:34.987Z,156.00
2019-02-16T03:07:34.526Z,152.00
2019-02-16T03:09:27.909Z,148.00
2019-02-16T03:10:27.902Z,148.00
2019-02-16T03:12:21.538Z,144.00
2019-02-16T03:13:21.206Z,140.00
2019-02-16T03:15:14.836Z,136.00
2019-02-16T03:16:14.816Z,132.00
2019-02-16T03:18:08.121Z,132.00
2019-02-16T03:19:07.931Z,132.00
2019-02-16T03:21:01.626Z,124.00
2019-02-16T03:22:03.254Z,124.00
2019-02-16T03:23:55.086Z,124.00
2019-02-16T03:24:54.576Z,116.00
2019-02-16T03:26:48.105Z,112.00
2019-02-16T03:27:47.930Z,112.00
2019-02-16T03:29:41.691Z,104.00
2019-02-16T03:30:41.539Z,104.00
2019-02-16T03:32:35.221Z,100.00
2019-02-16T03:33:34.864Z,104.00
2019-02-16T03:35:28.424Z,100.00
2019-02-16T03:36:28.177Z,96.00
2019-02-16T03:38:21.533Z,96.00
2019-02-16T03:39:21.348Z,96.00
2019-02-16T03:41:14.860Z,92.00
2019-02-16T03:42:14.635Z,92.00
2019-02-16T03:44:08.060Z,88.00
2019-02-16T03:45:08.033Z,88.00
2019-02-16T03:47:01.676Z,84.00
2019-02-16T03:48:01.555Z,88.00
2019-02-16T03:49:54.940Z,80.00
2019-02-16T03:50:54.715Z,80.00
2019-02-16T03:52:48.261Z,76.00
2019-02-16T03:53:48.034Z,76.00
2019-02-16T03:55:41.618Z,76.00
2019-02-16T03:56:41.606Z,80.00
2019-02-16T03:58:34.959Z,72.00
2019-02-16T03:59:34.973Z,68.00
2019-02-16T04:01:28.327Z,68.00
2019-02-16T04:02:28.097Z,72.00
2019-02-16T04:04:21.635Z,72.00
2019-02-16T04:05:21.661Z,152.00
2019-02-16T04:07:15.055Z,208.00
2019-02-16T04:08:14.781Z,204.00
2019-02-16T04:10:06.926Z,212.00
2019-02-16T04:11:06.868Z,208.00
2019-02-16T04:12:59.186Z,208.00
2019-02-16T04:13:59.174Z,204.00
2019-02-16T04:15:52.965Z,204.00
2019-02-16T04:16:52.561Z,204.00
2019-02-16T04:18:49.828Z,200.00
2019-02-16T04:19:48.706Z,200.00
2019-02-16T04:21:39.384Z,200.00
2019-02-16T04:22:39.677Z,196.00
2019-02-16T04:24:31.569Z,192.00
2019-02-16T04:25:31.568Z,196.00
2019-02-16T04:27:23.453Z,200.00
2019-02-16T04:28:23.394Z,196.00
2019-02-16T04:30:16.426Z,192.00
2019-02-16T04:31:15.519Z,196.00
2019-02-16T04:33:08.985Z,200.00
2019-02-16T04:34:07.927Z,196.00
2019-02-16T04:36:01.378Z,192.00
2019-02-16T04:37:01.251Z,196.00
2019-02-16T04:38:55.111Z,196.00
2019-02-16T04:39:54.588Z,196.00
2019-02-16T04:41:47.368Z,196.00
2019-02-16T04:44:39.968Z,196.00
2019-02-16T04:45:39.743Z,196.00
2019-02-16T04:47:34.815Z,196.00
2019-02-16T04:48:32.977Z,196.00
2019-02-16T04:50:26.786Z,196.00
2019-02-16T04:51:26.358Z,192.00
2019-02-16T04:53:19.859Z,192.00
2019-02-16T04:54:19.663Z,192.00
2019-02-16T04:56:13.425Z,192.00
2019-02-16T04:57:13.000Z,192.00
2019-02-16T04:59:06.954Z,192.00
2019-02-16T05:00:06.966Z,188.00
2019-02-16T05:02:00.520Z,188.00
2019-02-16T05:03:01.856Z,192.00
2019-02-16T05:04:53.750Z,192.00
2019-02-16T05:05:53.883Z,192.00
2019-02-16T05:06:53.899Z,192.00
2019-02-16T05:07:53.653Z,192.00
2019-02-16T05:08:53.596Z,188.00
2019-02-16T05:09:54.660Z,192.00
2019-02-16T05:10:53.867Z,192.00
2019-02-16T05:11:53.620Z,188.00
2019-02-16T05:12:53.796Z,188.00
2019-02-16T05:13:53.568Z,192.00
2019-02-16T05:14:53.798Z,188.00
2019-02-16T05:15:53.792Z,188.00
2019-02-16T05:16:53.781Z,184.00
2019-02-16T05:17:53.539Z,184.00
2019-02-16T05:18:53.572Z,188.00
2019-02-16T05:19:53.537Z,188.00
2019-02-16T05:20:53.784Z,188.00
2019-02-16T05:21:53.771Z,188.00
2019-02-16T05:22:53.753Z,184.00
2019-02-16T05:23:53.736Z,188.00
2019-02-16T05:24:53.514Z,184.00
2019-02-16T05:25:53.718Z,184.00
2019-02-16T05:26:53.504Z,188.00
2019-02-16T05:27:53.508Z,188.00
2019-02-16T05:28:53.511Z,188.00
2019-02-16T05:29:53.485Z,188.00
2019-02-16T05:31:53.656Z,184.00
2019-02-16T05:32:53.720Z,188.00
2019-02-16T05:33:53.417Z,188.00
2019-02-16T05:34:53.445Z,184.00
2019-02-16T05:35:53.409Z,184.00
2019-02-16T05:36:53.433Z,180.00
2019-02-16T05:37:53.384Z,180.00
2019-02-16T05:38:53.385Z,184.00
2019-02-16T05:39:53.395Z,184.00
2019-02-16T05:40:53.643Z,184.00
2019-02-16T05:41:53.578Z,184.00
2019-02-16T05:42:53.637Z,184.00
2019-02-16T05:43:53.386Z,184.00
2019-02-16T05:44:53.377Z,184.00
2019-02-16T05:45:53.359Z,188.00
2019-02-16T05:46:53.328Z,184.00
2019-02-16T05:47:53.552Z,180.00
2019-02-16T05:48:53.300Z,184.00
2019-02-16T05:49:53.323Z,180.00
2019-02-16T05:50:53.322Z,184.00
2019-02-16T05:51:53.532Z,180.00
2019-02-16T05:52:54.602Z,180.00
2019-02-16T05:53:53.506Z,184.00
2019-02-16T05:54:53.504Z,184.00
2019-02-16T05:55:53.469Z,184.00
2019-02-16T05:56:53.460Z,184.00
2019-02-16T05:57:53.449Z,180.00
2019-02-16T05:58:53.268Z,184.00
2019-02-16T05:59:53.535Z,180.00
2019-02-16T06:00:53.246Z,184.00
2019-02-16T06:02:01.002Z,180.00
2019-02-16T06:02:53.405Z,180.00
2019-02-16T06:03:54.419Z,184.00
2019-02-16T06:04:53.514Z,184.00
2019-02-16T06:05:53.202Z,180.00
2019-02-16T06:06:53.427Z,180.00
2019-02-16T06:07:53.151Z,180.00
2019-02-16T06:08:53.190Z,180.00
2019-02-16T06:09:53.416Z,180.00
2019-02-16T06:10:53.401Z,180.00
2019-02-16T06:11:53.404Z,180.00
2019-02-16T06:12:53.370Z,176.00
2019-02-16T06:13:53.392Z,176.00
2019-02-16T06:14:53.350Z,176.00
2019-02-16T06:15:53.328Z,176.00
2019-02-16T06:16:53.106Z,172.00
2019-02-16T06:17:53.145Z,176.00
2019-02-16T06:18:53.073Z,176.00
2019-02-16T06:19:53.917Z,180.00
2019-02-16T06:20:53.062Z,176.00
2019-02-16T06:21:53.279Z,180.00
2019-02-16T06:22:53.126Z,180.00
2019-02-16T06:23:53.042Z,176.00
2019-02-16T06:24:53.026Z,180.00
2019-02-16T06:25:53.251Z,180.00
2019-02-16T06:26:53.055Z,176.00
2019-02-16T06:27:53.009Z,176.00
2019-02-16T06:28:53.278Z,176.00
2019-02-16T06:29:53.234Z,172.00
2019-02-16T06:30:53.019Z,172.00
2019-02-16T06:31:53.198Z,176.00
2019-02-16T06:32:53.186Z,176.00
2019-02-16T06:33:53.779Z,176.00
2019-02-16T06:34:53.213Z,176.00
2019-02-16T06:35:53.166Z,176.00
2019-02-16T06:36:53.220Z,180.00
2019-02-16T06:37:52.969Z,180.00
2019-02-16T06:38:52.927Z,180.00
2019-02-16T06:39:52.919Z,176.00
2019-02-16T06:40:52.955Z,176.00
2019-02-16T06:41:52.911Z,180.00
2019-02-16T06:42:52.887Z,172.00
2019-02-16T06:43:53.146Z,176.00
2019-02-16T06:44:52.897Z,176.00
2019-02-16T06:45:53.098Z,176.00
2019-02-16T06:46:53.098Z,176.00
2019-02-16T06:47:53.109Z,176.00
2019-02-16T06:48:52.841Z,172.00
2019-02-16T06:49:52.841Z,176.00
2019-02-16T06:50:53.102Z,176.00
2019-02-16T06:51:52.822Z,176.00
2019-02-16T06:52:52.815Z,180.00
2019-02-16T06:53:53.104Z,176.00
2019-02-16T06:54:52.801Z,176.00
2019-02-16T06:55:53.054Z,176.00
2019-02-16T06:56:52.824Z,176.00
2019-02-16T06:57:53.033Z,176.00
2019-02-16T06:58:52.774Z,176.00
2019-02-16T06:59:52.765Z,176.00
2019-02-16T07:00:53.046Z,176.00
2019-02-16T07:01:52.971Z,172.00
2019-02-16T07:02:52.744Z,176.00
2019-02-16T07:03:53.003Z,176.00
2019-02-16T07:04:53.005Z,176.00
2019-02-16T07:05:52.971Z,172.00
2019-02-16T07:06:52.927Z,176.00
2019-02-16T07:07:52.933Z,176.00
2019-02-16T07:08:52.921Z,176.00
2019-02-16T07:09:52.950Z,176.00
2019-02-16T07:10:52.678Z,172.00
2019-02-16T07:11:52.900Z,172.00
2019-02-16T07:12:52.701Z,172.00
2019-02-16T07:13:52.941Z,172.00
2019-02-16T07:14:52.693Z,172.00
2019-02-16T07:15:52.905Z,172.00
2019-02-16T07:16:52.691Z,172.00
2019-02-16T07:17:52.663Z,172.00
2019-02-16T07:18:52.878Z,172.00
2019-02-16T07:19:52.669Z,172.00
2019-02-16T07:20:52.826Z,172.00
2019-02-16T07:21:52.602Z,172.00
2019-02-16T07:22:52.870Z,172.00
2019-02-16T07:23:52.582Z,172.00
2019-02-16T07:24:52.589Z,172.00
2019-02-16T07:25:52.814Z,172.00
2019-02-16T07:26:52.816Z,172.00
2019-02-16T07:27:52.568Z,176.00
2019-02-16T07:28:52.552Z,172.00
2019-02-16T07:29:52.574Z,172.00
2019-02-16T07:30:52.539Z,168.00
2019-02-16T07:31:52.734Z,168.00
2019-02-16T07:32:52.737Z,172.00
2019-02-16T07:33:52.758Z,172.00
2019-02-16T07:34:52.767Z,168.00
2019-02-16T07:35:52.718Z,168.00
2019-02-16T07:36:52.494Z,168.00
2019-02-16T07:37:52.526Z,168.00
2019-02-16T07:38:52.698Z,172.00
2019-02-16T07:39:52.498Z,172.00
2019-02-16T07:40:52.739Z,172.00
2019-02-16T07:41:52.700Z,168.00
2019-02-16T07:42:52.682Z,168.00
2019-02-16T07:43:52.983Z,172.00
2019-02-16T07:44:52.430Z,172.00
2019-02-16T07:45:52.431Z,168.00
2019-02-16T07:46:52.700Z,172.00
2019-02-16T07:47:52.662Z,172.00
2019-02-16T07:48:52.389Z,168.00
2019-02-16T07:49:52.438Z,172.00
2019-02-16T07:50:52.628Z,172.00
2019-02-16T07:51:52.589Z,172.00
2019-02-16T07:52:52.632Z,168.00
2019-02-16T07:53:52.597Z,172.00
2019-02-16T07:54:52.354Z,168.00
2019-02-16T07:55:52.354Z,168.00
2019-02-16T07:56:52.631Z,168.00
2019-02-16T07:57:52.379Z,168.00
2019-02-16T07:58:52.326Z,168.00
2019-02-16T07:59:52.585Z,164.00
2019-02-16T08:00:52.564Z,168.00
2019-02-16T08:01:53.598Z,168.00
2019-02-16T08:02:52.544Z,172.00
2019-02-16T08:03:53.777Z,168.00
2019-02-16T08:04:52.542Z,168.00
2019-02-16T08:05:52.293Z,168.00
2019-02-16T08:06:52.534Z,168.00
2019-02-16T08:07:52.544Z,168.00
2019-02-16T08:08:53.005Z,172.00
2019-02-16T08:09:52.266Z,168.00
2019-02-16T08:10:52.452Z,168.00
2019-02-16T08:11:52.477Z,168.00
2019-02-16T08:12:52.454Z,168.00
2019-02-16T08:13:52.427Z,172.00
2019-02-16T08:14:52.223Z,172.00
2019-02-16T08:15:52.198Z,172.00
2019-02-16T08:16:52.437Z,172.00
2019-02-16T08:17:52.433Z,172.00
2019-02-16T08:18:52.179Z,168.00
2019-02-16T08:19:52.205Z,168.00
2019-02-16T08:20:52.146Z,168.00
2019-02-16T08:21:52.412Z,168.00
2019-02-16T08:22:52.407Z,168.00
2019-02-16T08:23:52.138Z,168.00
2019-02-16T08:24:52.395Z,172.00
2019-02-16T08:25:52.394Z,172.00
2019-02-16T08:26:52.108Z,168.00
2019-02-16T08:27:52.151Z,168.00
2019-02-16T08:28:52.121Z,168.00
2019-02-16T08:29:52.091Z,168.00
2019-02-16T08:30:52.114Z,168.00
2019-02-16T08:31:52.295Z,168.00
2019-02-16T08:32:52.121Z,168.00
2019-02-16T08:33:52.101Z,168.00
2019-02-16T08:34:52.291Z,168.00
2019-02-16T08:35:52.045Z,164.00
2019-02-16T08:36:52.335Z,168.00
2019-02-16T08:37:52.276Z,168.00
2019-02-16T08:38:52.037Z,164.00
2019-02-16T08:39:52.261Z,164.00
2019-02-16T08:40:52.290Z,160.00
2019-02-16T08:41:52.284Z,164.00
2019-02-16T08:42:51.996Z,164.00
2019-02-16T08:43:51.991Z,164.00
2019-02-16T08:44:51.965Z,164.00
2019-02-16T08:45:51.997Z,164.00
2019-02-16T08:46:52.000Z,164.00
2019-02-16T08:47:52.244Z,168.00
2019-02-16T08:48:52.221Z,160.00
2019-02-16T08:49:52.645Z,160.00
2019-02-16T08:50:51.920Z,160.00
2019-02-16T08:51:51.958Z,160.00
2019-02-16T08:52:52.169Z,160.00
2019-02-16T08:53:52.240Z,164.00
2019-02-16T08:54:51.899Z,160.00
2019-02-16T08:55:52.103Z,164.00
2019-02-16T08:56:51.921Z,160.00
2019-02-16T08:57:51.870Z,164.00
2019-02-16T08:58:52.142Z,164.00
2019-02-16T08:59:51.851Z,164.00
2019-02-16T09:00:51.844Z,160.00
2019-02-16T09:01:51.880Z,160.00
2019-02-16T09:02:51.847Z,156.00
2019-02-16T09:03:52.069Z,156.00
2019-02-16T09:04:51.816Z,160.00
2019-02-16T09:05:51.798Z,160.00
2019-02-16T09:06:52.060Z,156.00
2019-02-16T09:07:51.837Z,160.00
2019-02-16T09:08:52.022Z,160.00
2019-02-16T09:09:51.813Z,156.00
2019-02-16T09:10:51.821Z,156.00
2019-02-16T09:11:52.051Z,160.00
2019-02-16T09:12:52.022Z,156.00
2019-02-16T09:13:52.029Z,156.00
2019-02-16T09:14:52.022Z,152.00
2019-02-16T09:15:52.129Z,156.00
2019-02-16T09:16:51.970Z,156.00
2019-02-16T09:17:51.757Z,156.00
2019-02-16T09:18:51.999Z,156.00
2019-02-16T09:19:52.123Z,156.00
2019-02-16T09:20:51.748Z,156.00
2019-02-16T09:21:52.941Z,156.00
2019-02-16T09:22:51.679Z,156.00
2019-02-16T09:23:58.863Z,156.00
2019-02-16T09:24:51.810Z,156.00
2019-02-16T09:25:52.467Z,152.00
2019-02-16T09:26:53.984Z,156.00
2019-02-16T09:27:51.676Z,156.00
2019-02-16T09:28:51.848Z,156.00
2019-02-16T09:29:52.570Z,156.00
2019-02-16T09:30:51.895Z,152.00
2019-02-16T09:31:51.862Z,148.00
2019-02-16T09:32:51.652Z,152.00
2019-02-16T09:33:51.817Z,152.00
2019-02-16T09:34:51.811Z,148.00
2019-02-16T09:35:51.840Z,152.00
2019-02-16T09:36:51.855Z,152.00
2019-02-16T09:37:51.964Z,148.00
2019-02-16T09:38:51.794Z,152.00
2019-02-16T09:39:51.583Z,152.00
2019-02-16T09:40:51.788Z,148.00
2019-02-16T09:41:51.768Z,152.00
2019-02-16T09:42:51.740Z,148.00
2019-02-16T09:43:51.762Z,148.00
2019-02-16T09:44:51.784Z,148.00
2019-02-16T09:45:51.716Z,152.00
2019-02-16T09:46:51.493Z,148.00
2019-02-16T09:47:51.764Z,148.00
2019-02-16T09:48:51.749Z,148.00
2019-02-16T09:49:51.738Z,148.00
2019-02-16T09:50:51.485Z,152.00
2019-02-16T09:51:51.698Z,8.00
2019-02-16T09:52:51.701Z,4.00
2019-02-16T09:53:51.689Z,4.00
2019-02-16T09:54:51.427Z,4.00
2019-02-16T09:55:51.642Z,4.00
2019-02-16T09:56:51.719Z,4.00
2019-02-16T09:57:51.683Z,4.00
2019-02-16T09:58:51.670Z,4.00
2019-02-16T09:59:51.395Z,0.00
2019-02-16T10:00:51.420Z,4.00
2019-02-16T10:01:51.590Z,4.00
2019-02-16T10:02:51.373Z,4.00
2019-02-16T10:03:51.368Z,4.00
2019-02-16T10:04:51.358Z,4.00
2019-02-16T10:05:51.371Z,4.00
2019-02-16T10:06:51.616Z,4.00
2019-02-16T10:07:51.574Z,0.00
2019-02-16T10:08:51.331Z,0.00
2019-02-16T10:09:51.528Z,0.00
2019-02-16T10:10:51.345Z,0.00
2019-02-16T10:11:51.307Z,0.00
2019-02-16T10:12:51.513Z,4.00
2019-02-16T10:13:51.279Z,4.00
2019-02-16T10:14:51.554Z,4.00
2019-02-16T10:15:51.273Z,0.00
2019-02-16T10:16:51.536Z,0.00
2019-02-16T10:17:51.499Z,0.00
2019-02-16T10:18:51.272Z,0.00
2019-02-16T10:19:51.285Z,0.00
2019-02-16T10:20:51.264Z,0.00
2019-02-16T10:21:51.256Z,0.00
2019-02-16T10:22:51.253Z,0.00
2019-02-16T10:23:51.252Z,0.00
2019-02-16T10:24:51.426Z,0.00
2019-02-16T10:25:51.185Z,0.00
2019-02-16T10:26:51.430Z,0.00
2019-02-16T10:27:51.172Z,0.00
2019-02-16T10:28:51.458Z,0.00
2019-02-16T10:29:51.172Z,0.00
2019-02-16T10:30:51.196Z,0.00
2019-02-16T10:31:51.194Z,0.00
2019-02-16T10:32:51.151Z,0.00
2019-02-16T10:33:51.392Z,0.00
2019-02-16T10:34:51.337Z,0.00
2019-02-16T10:35:51.374Z,104.00
2019-02-16T10:36:51.392Z,136.00
2019-02-16T10:37:51.356Z,140.00
2019-02-16T10:38:51.121Z,144.00
2019-02-16T10:39:51.369Z,144.00
2019-02-16T10:40:51.078Z,144.00
2019-02-16T10:41:51.292Z,144.00
2019-02-16T10:42:51.272Z,148.00
2019-02-16T10:43:51.317Z,144.00
2019-02-16T10:44:51.290Z,144.00
2019-02-16T10:45:51.303Z,144.00
2019-02-16T10:46:51.270Z,148.00
2019-02-16T10:47:51.290Z,0.00
2019-02-16T10:48:51.298Z,0.00
2019-02-16T10:49:51.007Z,0.00
2019-02-16T10:50:51.033Z,0.00
2019-02-16T10:51:51.268Z,0.00
2019-02-16T10:52:51.241Z,0.00
2019-02-16T10:53:50.996Z,0.00
2019-02-16T10:54:51.223Z,0.00
2019-02-16T10:55:51.203Z,0.00
2019-02-16T10:56:52.404Z,0.00
2019-02-16T10:57:50.948Z,0.00
2019-02-16T10:58:51.154Z,0.00
2019-02-16T10:59:51.173Z,0.00
2019-02-16T11:00:51.139Z,0.00
2019-02-16T11:01:51.124Z,0.00
2019-02-16T11:02:50.952Z,0.00
2019-02-16T11:03:51.123Z,0.00
2019-02-16T11:05:50.879Z,0.00
2019-02-16T11:06:51.116Z,0.00
2019-02-16T11:07:51.110Z,0.00
2019-02-16T11:08:51.068Z,0.00
2019-02-16T11:09:51.131Z,0.00
2019-02-16T11:10:51.055Z,0.00
2019-02-16T11:11:51.085Z,0.00
2019-02-16T11:12:50.819Z,0.00
2019-02-16T11:13:51.065Z,0.00
2019-02-16T11:14:50.859Z,0.00
2019-02-16T11:15:51.089Z,0.00
2019-02-16T11:16:50.828Z,0.00
2019-02-16T11:17:50.816Z,0.00
2019-02-16T11:18:51.032Z,0.00
2019-02-16T11:19:51.041Z,0.00
2019-02-16T11:20:50.805Z,0.00
2019-02-16T11:21:50.760Z,0.00
2019-02-16T11:24:22.010Z,0.00
2019-02-16T11:25:22.076Z,0.00
2019-02-16T11:27:15.240Z,0.00
2019-02-16T11:28:15.373Z,0.00
2019-02-16T11:30:08.710Z,0.00
2019-02-16T11:31:08.760Z,0.00
2019-02-16T11:33:01.877Z,0.00
2019-02-16T11:34:02.108Z,0.00
2019-02-16T11:35:55.488Z,0.00
2019-02-16T11:36:55.387Z,0.00
2019-02-16T11:38:48.556Z,0.00
2019-02-16T11:39:48.509Z,0.00
2019-02-16T11:41:42.101Z,0.00
2019-02-16T11:42:41.854Z,0.00
2019-02-16T11:44:35.232Z,0.00
2019-02-16T11:45:35.439Z,0.00
2019-02-16T11:47:29.009Z,0.00
2019-02-16T11:48:28.756Z,0.00
2019-02-16T11:50:22.135Z,0.00
2019-02-16T11:51:21.904Z,0.00
2019-02-16T11:53:15.717Z,0.00
2019-02-16T11:54:15.206Z,0.00
2019-02-16T11:56:08.818Z,0.00
2019-02-16T11:57:08.786Z,0.00
2019-02-16T11:59:02.870Z,0.00
2019-02-16T12:00:01.901Z,0.00
2019-02-16T12:01:55.256Z,0.00
2019-02-16T12:02:55.240Z,0.00
2019-02-16T12:04:48.805Z,0.00
2019-02-16T12:05:48.595Z,0.00
2019-02-16T12:07:41.930Z,0.00
2019-02-16T12:08:41.926Z,0.00
2019-02-16T12:10:35.625Z,0.00
2019-02-16T12:11:35.289Z,0.00
2019-02-16T12:13:28.645Z,0.00
2019-02-16T12:14:28.855Z,0.00
2019-02-16T12:16:22.415Z,0.00
2019-02-16T12:17:22.235Z,0.00
2019-02-16T12:19:15.041Z,0.00
2019-02-16T12:20:14.848Z,0.00
2019-02-16T12:22:08.650Z,0.00
2019-02-16T12:23:08.442Z,0.00
2019-02-16T12:25:05.681Z,0.00
2019-02-16T12:26:01.743Z,0.00
2019-02-16T12:27:55.225Z,0.00
2019-02-16T12:28:55.088Z,0.00
2019-02-16T12:30:48.471Z,0.00
2019-02-16T12:31:48.418Z,0.00
2019-02-16T12:33:41.970Z,0.00
2019-02-16T12:34:41.797Z,0.00
2019-02-16T12:36:35.129Z,0.00
2019-02-16T12:37:34.868Z,0.00
2019-02-16T12:39:28.696Z,0.00
2019-02-16T12:40:28.210Z,0.00
2019-02-16T12:42:21.553Z,0.00
2019-02-16T12:43:21.555Z,0.00
2019-02-16T12:45:15.367Z,0.00
2019-02-16T12:46:14.893Z,0.00
2019-02-16T12:48:08.477Z,0.00
2019-02-16T12:49:08.265Z,0.00
2019-02-16T12:51:01.369Z,0.00
2019-02-16T12:52:01.109Z,0.00
2019-02-16T12:53:54.767Z,0.00
2019-02-16T12:54:54.701Z,0.00
2019-02-16T12:56:48.058Z,0.00
2019-02-16T12:57:48.052Z,0.00
2019-02-16T12:59:41.163Z,0.00
2019-02-16T13:00:41.365Z,0.00
2019-02-16T13:02:34.710Z,0.00
2019-02-16T13:03:34.690Z,0.00
2019-02-16T13:05:28.077Z,0.00
2019-02-16T13:06:28.085Z,0.00
2019-02-16T13:08:21.644Z,0.00
2019-02-16T13:09:21.424Z,0.00
2019-02-16T13:11:14.505Z,0.00
2019-02-16T13:12:14.526Z,0.00
2019-02-16T13:14:08.276Z,0.00
2019-02-16T13:15:08.112Z,0.00
2019-02-16T13:17:01.233Z,0.00
2019-02-16T13:18:01.468Z,0.00
2019-02-16T13:19:55.026Z,0.00
2019-02-16T13:20:54.781Z,0.00
2019-02-16T13:22:48.140Z,0.00
2019-02-16T13:23:47.917Z,0.00
2019-02-16T13:25:41.443Z,0.00
2019-02-16T13:26:41.466Z,0.00
2019-02-16T13:28:34.597Z,0.00
2019-02-16T13:29:34.793Z,0.00
2019-02-16T13:31:28.371Z,0.00
2019-02-16T13:32:28.144Z,0.00
2019-02-16T13:34:21.534Z,0.00
2019-02-16T13:35:21.527Z,0.00
2019-02-16T13:37:14.871Z,0.00
2019-02-16T13:38:14.807Z,0.00
2019-02-16T13:40:08.176Z,0.00
2019-02-16T13:41:08.177Z,0.00
2019-02-16T13:43:01.466Z,0.00
2019-02-16T13:44:01.496Z,0.00
2019-02-16T13:45:54.618Z,0.00
2019-02-16T13:46:54.864Z,0.00
2019-02-16T13:48:48.426Z,0.00
2019-02-16T13:49:48.227Z,0.00
2019-02-16T13:51:41.298Z,0.00
2019-02-16T13:52:41.323Z,0.00
2019-02-16T13:54:35.121Z,0.00
2019-02-16T13:55:36.224Z,0.00
2019-02-16T13:57:28.224Z,0.00
2019-02-16T13:58:27.984Z,0.00
2019-02-16T14:00:21.884Z,0.00
2019-02-16T14:01:21.567Z,0.00
2019-02-16T14:03:14.726Z,0.00
2019-02-16T14:04:14.919Z,0.00
2019-02-16T14:06:08.468Z,0.00
2019-02-16T14:07:08.246Z,0.00
2019-02-16T14:09:02.406Z,0.00
2019-02-16T14:10:02.465Z,0.00
2019-02-16T14:11:55.735Z,0.00
2019-02-16T14:12:55.790Z,0.00
2019-02-16T14:14:48.930Z,0.00
2019-02-16T14:15:49.110Z,0.00
2019-02-16T14:17:42.456Z,0.00
2019-02-16T14:18:42.487Z,0.00
2019-02-16T14:20:35.571Z,0.00
2019-02-16T14:21:35.825Z,0.00
2019-02-16T14:23:29.126Z,0.00
2019-02-16T14:24:29.172Z,0.00
2019-02-16T14:26:22.292Z,0.00
2019-02-16T14:27:22.284Z,0.00
2019-02-16T14:29:16.054Z,0.00
2019-02-16T14:30:15.582Z,0.00
2019-02-16T14:32:08.963Z,0.00
2019-02-16T14:33:08.961Z,0.00
2019-02-16T14:35:02.684Z,0.00
2019-02-16T14:36:02.307Z,0.00
2019-02-16T14:37:55.628Z,0.00
2019-02-16T14:38:55.611Z,0.00
2019-02-16T14:40:49.201Z,0.00
2019-02-16T14:41:49.236Z,0.00
2019-02-16T14:43:42.314Z,0.00
2019-02-16T14:44:42.548Z,0.00
2019-02-16T14:46:35.878Z,0.00
2019-02-16T14:47:35.681Z,0.00
2019-02-16T14:49:28.988Z,0.00
2019-02-16T14:50:28.988Z,0.00
2019-02-16T14:52:22.552Z,0.00
2019-02-16T14:53:22.604Z,0.00
2019-02-16T14:55:15.905Z,0.00
2019-02-16T14:56:15.657Z,0.00
2019-02-16T14:58:09.519Z,0.00
2019-02-16T14:59:09.012Z,0.00
2019-02-16T15:01:02.627Z,0.00
2019-02-16T15:02:02.346Z,0.00
2019-02-16T15:03:55.910Z,0.00
2019-02-16T15:04:55.946Z,0.00
2019-02-16T15:06:49.318Z,0.00
2019-02-16T15:07:49.038Z,0.00
2019-02-16T15:09:42.844Z,0.00
2019-02-16T15:10:42.630Z,0.00
2019-02-16T15:12:35.531Z,0.00
2019-02-16T15:13:35.280Z,0.00
2019-02-16T15:15:28.821Z,0.00
2019-02-16T15:16:28.580Z,0.00
2019-02-16T15:18:22.225Z,0.00
2019-02-16T15:19:21.958Z,0.00
2019-02-16T15:21:15.514Z,0.00
2019-02-16T15:22:15.481Z,0.00
2019-02-16T15:24:08.903Z,0.00
2019-02-16T15:25:10.669Z,0.00
2019-02-16T15:27:02.467Z,0.00
2019-02-16T15:28:02.227Z,0.00
2019-02-16T15:29:55.645Z,0.00
2019-02-16T15:30:55.285Z,0.00
2019-02-16T15:32:48.871Z,0.00
2019-02-16T15:33:48.849Z,0.00
2019-02-16T15:35:41.979Z,0.00
2019-02-16T15:36:42.240Z,0.00
2019-02-16T15:38:35.625Z,0.00
2019-02-16T15:39:35.565Z,0.00
2019-02-16T15:41:28.442Z,0.00
2019-02-16T15:42:28.475Z,0.00
2019-02-16T15:44:21.796Z,0.00
2019-02-16T15:45:21.562Z,0.00
2019-02-16T15:47:15.146Z,0.00
2019-02-16T15:48:15.121Z,0.00
2019-02-16T15:50:08.663Z,0.00
2019-02-16T15:51:08.207Z,0.00